sensor_id;sensor_type;location;lat;lon;timestamp;temperature;humidity
13322;DHT22;6730;46.248;6.930;2023-09-08T00:00:01;23.30;99.90
13322;DHT22;6730;46.248;6.930;2023-09-08T00:02:28;23.40;99.90
13322;DHT22;6730;46.248;6.930;2023-09-08T00:04:54;23.30;99.90
13322;DHT22;6730;46.248;6.930;2023-09-08T00:07:20;23.30;99.90
13322;DHT22;6730;46.248;6.930;2023-09-08T00:09:46;23.30;99.90
13322;DHT22;6730;46.248;6.930;2023-09-08T00:12:12;23.10;99.90
13322;DHT22;6730;46.248;6.930;2023-09-08T00:14:38;23.00;99.90
13322;DHT22;6730;46.248;6.930;2023-09-08T00:17:04;22.90;99.90
13322;DHT22;6730;46.248;6.930;2023-09-08T00:19:30;22.90;99.90
13322;DHT22;6730;46.248;6.930;2023-09-08T00:21:56;23.00;99.90
13322;DHT22;6730;46.248;6.930;2023-09-08T00:24:22;23.10;99.90
13322;DHT22;6730;46.248;6.930;2023-09-08T00:26:48;23.10;99.90
13322;DHT22;6730;46.248;6.930;2023-09-08T00:29:13;23.00;99.90
13322;DHT22;6730;46.248;6.930;2023-09-08T00:31:39;23.10;99.90
13322;DHT22;6730;46.248;6.930;2023-09-08T00:34:05;23.10;99.90
13322;DHT22;6730;46.248;6.930;2023-09-08T00:36:32;23.10;99.90
13322;DHT22;6730;46.248;6.930;2023-09-08T00:39:00;23.00;99.90
13322;DHT22;6730;46.248;6.930;2023-09-08T00:41:26;23.00;99.90
13322;DHT22;6730;46.248;6.930;2023-09-08T00:43:51;23.00;99.90
13322;DHT22;6730;46.248;6.930;2023-09-08T00:46:17;23.00;99.90
13322;DHT22;6730;46.248;6.930;2023-09-08T00:48:43;23.00;99.90
13322;DHT22;6730;46.248;6.930;2023-09-08T00:51:09;22.90;99.90
13322;DHT22;6730;46.248;6.930;2023-09-08T00:53:37;23.00;99.90
13322;DHT22;6730;46.248;6.930;2023-09-08T00:56:03;23.10;99.90
13322;DHT22;6730;46.248;6.930;2023-09-08T00:58:29;23.00;99.90
13322;DHT22;6730;46.248;6.930;2023-09-08T01:00:56;22.90;99.90
13322;DHT22;6730;46.248;6.930;2023-09-08T01:03:23;22.90;99.90
13322;DHT22;6730;46.248;6.930;2023-09-08T01:05:49;22.90;99.90
13322;DHT22;6730;46.248;6.930;2023-09-08T01:08:19;22.90;99.90
13322;DHT22;6730;46.248;6.930;2023-09-08T01:10:45;22.80;99.90
13322;DHT22;6730;46.248;6.930;2023-09-08T01:13:11;22.90;99.90
13322;DHT22;6730;46.248;6.930;2023-09-08T01:15:37;22.80;99.90
13322;DHT22;6730;46.248;6.930;2023-09-08T01:18:02;22.50;99.90
13322;DHT22;6730;46.248;6.930;2023-09-08T01:23:27;22.20;99.90
13322;DHT22;6730;46.248;6.930;2023-09-08T01:26:03;22.00;99.90
13322;DHT22;6730;46.248;6.930;2023-09-08T01:28:32;22.00;99.90
13322;DHT22;6730;46.248;6.930;2023-09-08T01:30:58;21.90;99.90
13322;DHT22;6730;46.248;6.930;2023-09-08T01:33:26;22.20;99.90
13322;DHT22;6730;46.248;6.930;2023-09-08T01:35:53;22.50;99.90
13322;DHT22;6730;46.248;6.930;2023-09-08T01:38:21;22.60;99.90
13322;DHT22;6730;46.248;6.930;2023-09-08T01:40:47;22.70;99.90
13322;DHT22;6730;46.248;6.930;2023-09-08T01:43:12;22.70;99.90
13322;DHT22;6730;46.248;6.930;2023-09-08T01:45:38;22.60;99.90
13322;DHT22;6730;46.248;6.930;2023-09-08T01:48:04;22.70;99.90
13322;DHT22;6730;46.248;6.930;2023-09-08T01:50:30;22.80;99.90
13322;DHT22;6730;46.248;6.930;2023-09-08T01:52:55;22.70;99.90
13322;DHT22;6730;46.248;6.930;2023-09-08T01:55:21;22.50;99.90
13322;DHT22;6730;46.248;6.930;2023-09-08T01:57:56;22.40;99.90
13322;DHT22;6730;46.248;6.930;2023-09-08T02:00:22;22.30;99.90
13322;DHT22;6730;46.248;6.930;2023-09-08T02:02:48;22.40;99.90
13322;DHT22;6730;46.248;6.930;2023-09-08T02:05:14;22.60;99.90
13322;DHT22;6730;46.248;6.930;2023-09-08T02:07:39;22.60;99.90
13322;DHT22;6730;46.248;6.930;2023-09-08T02:10:05;22.60;99.90
13322;DHT22;6730;46.248;6.930;2023-09-08T02:12:31;22.60;99.90
13322;DHT22;6730;46.248;6.930;2023-09-08T02:14:57;22.50;99.90
13322;DHT22;6730;46.248;6.930;2023-09-08T02:17:23;22.50;99.90
13322;DHT22;6730;46.248;6.930;2023-09-08T02:19:48;22.30;99.90
13322;DHT22;6730;46.248;6.930;2023-09-08T02:22:14;22.20;99.90
13322;DHT22;6730;46.248;6.930;2023-09-08T02:24:40;22.20;99.90
13322;DHT22;6730;46.248;6.930;2023-09-08T02:27:05;22.00;99.90
13322;DHT22;6730;46.248;6.930;2023-09-08T02:29:31;22.10;99.90
13322;DHT22;6730;46.248;6.930;2023-09-08T02:31:57;22.20;99.90
13322;DHT22;6730;46.248;6.930;2023-09-08T02:34:23;22.40;99.90
13322;DHT22;6730;46.248;6.930;2023-09-08T02:36:48;22.30;99.90
13322;DHT22;6730;46.248;6.930;2023-09-08T02:39:16;22.20;99.90
13322;DHT22;6730;46.248;6.930;2023-09-08T02:41:42;22.30;99.90
13322;DHT22;6730;46.248;6.930;2023-09-08T02:44:07;22.40;99.90
13322;DHT22;6730;46.248;6.930;2023-09-08T02:46:33;22.30;99.90
13322;DHT22;6730;46.248;6.930;2023-09-08T02:48:59;22.30;99.90
13322;DHT22;6730;46.248;6.930;2023-09-08T02:51:24;22.30;99.90
13322;DHT22;6730;46.248;6.930;2023-09-08T02:53:50;22.20;99.90
13322;DHT22;6730;46.248;6.930;2023-09-08T02:56:16;22.30;99.90
13322;DHT22;6730;46.248;6.930;2023-09-08T02:58:41;22.30;99.90
13322;DHT22;6730;46.248;6.930;2023-09-08T03:01:15;22.10;99.90
13322;DHT22;6730;46.248;6.930;2023-09-08T03:03:42;22.00;99.90
13322;DHT22;6730;46.248;6.930;2023-09-08T03:06:09;21.70;99.90
13322;DHT22;6730;46.248;6.930;2023-09-08T03:08:35;21.50;99.90
13322;DHT22;6730;46.248;6.930;2023-09-08T03:11:02;21.70;99.90
13322;DHT22;6730;46.248;6.930;2023-09-08T03:13:28;22.00;99.90
13322;DHT22;6730;46.248;6.930;2023-09-08T03:16:01;22.00;99.90
13322;DHT22;6730;46.248;6.930;2023-09-08T03:18:27;22.10;99.90
13322;DHT22;6730;46.248;6.930;2023-09-08T03:20:53;22.10;99.90
13322;DHT22;6730;46.248;6.930;2023-09-08T03:23:19;22.20;99.90
13322;DHT22;6730;46.248;6.930;2023-09-08T03:25:44;22.20;99.90
13322;DHT22;6730;46.248;6.930;2023-09-08T03:28:11;22.10;99.90
13322;DHT22;6730;46.248;6.930;2023-09-08T03:30:37;22.20;99.90
13322;DHT22;6730;46.248;6.930;2023-09-08T03:33:02;22.20;99.90
13322;DHT22;6730;46.248;6.930;2023-09-08T03:35:28;22.20;99.90
13322;DHT22;6730;46.248;6.930;2023-09-08T03:37:54;22.20;99.90
13322;DHT22;6730;46.248;6.930;2023-09-08T03:40:19;22.20;99.90
13322;DHT22;6730;46.248;6.930;2023-09-08T03:42:45;22.20;99.90
13322;DHT22;6730;46.248;6.930;2023-09-08T03:45:11;22.20;99.90
13322;DHT22;6730;46.248;6.930;2023-09-08T03:47:36;22.20;99.90
13322;DHT22;6730;46.248;6.930;2023-09-08T03:50:02;22.10;99.90
13322;DHT22;6730;46.248;6.930;2023-09-08T03:52:28;22.20;99.90
13322;DHT22;6730;46.248;6.930;2023-09-08T03:54:54;22.10;99.90
13322;DHT22;6730;46.248;6.930;2023-09-08T03:57:19;22.00;99.90
13322;DHT22;6730;46.248;6.930;2023-09-08T03:59:45;22.00;99.90
13322;DHT22;6730;46.248;6.930;2023-09-08T04:02:11;22.00;99.90
13322;DHT22;6730;46.248;6.930;2023-09-08T04:04:36;22.10;99.90
13322;DHT22;6730;46.248;6.930;2023-09-08T04:07:02;22.10;99.90
13322;DHT22;6730;46.248;6.930;2023-09-08T04:09:28;22.10;99.90
13322;DHT22;6730;46.248;6.930;2023-09-08T04:11:54;21.90;99.90
13322;DHT22;6730;46.248;6.930;2023-09-08T04:14:20;21.90;99.90
13322;DHT22;6730;46.248;6.930;2023-09-08T04:16:49;21.90;99.90
13322;DHT22;6730;46.248;6.930;2023-09-08T04:19:14;21.80;99.90
13322;DHT22;6730;46.248;6.930;2023-09-08T04:21:41;21.70;99.90
13322;DHT22;6730;46.248;6.930;2023-09-08T04:24:06;21.50;99.90
13322;DHT22;6730;46.248;6.930;2023-09-08T04:26:32;21.60;99.90
13322;DHT22;6730;46.248;6.930;2023-09-08T04:28:58;21.80;99.90
13322;DHT22;6730;46.248;6.930;2023-09-08T04:31:24;21.90;99.90
13322;DHT22;6730;46.248;6.930;2023-09-08T04:33:49;22.10;99.90
13322;DHT22;6730;46.248;6.930;2023-09-08T04:36:15;22.10;99.90
13322;DHT22;6730;46.248;6.930;2023-09-08T04:38:41;22.10;99.90
13322;DHT22;6730;46.248;6.930;2023-09-08T04:41:07;22.00;99.90
13322;DHT22;6730;46.248;6.930;2023-09-08T04:43:32;22.00;99.90
13322;DHT22;6730;46.248;6.930;2023-09-08T04:45:58;21.90;99.90
13322;DHT22;6730;46.248;6.930;2023-09-08T04:48:24;21.80;99.90
13322;DHT22;6730;46.248;6.930;2023-09-08T04:50:49;21.90;99.90
13322;DHT22;6730;46.248;6.930;2023-09-08T04:53:16;21.90;99.90
13322;DHT22;6730;46.248;6.930;2023-09-08T04:55:44;21.90;99.90
13322;DHT22;6730;46.248;6.930;2023-09-08T04:58:10;21.80;99.90
13322;DHT22;6730;46.248;6.930;2023-09-08T05:00:37;21.80;99.90
13322;DHT22;6730;46.248;6.930;2023-09-08T05:03:04;21.70;99.90
13322;DHT22;6730;46.248;6.930;2023-09-08T05:05:30;21.90;99.90
13322;DHT22;6730;46.248;6.930;2023-09-08T05:07:55;22.00;99.90
13322;DHT22;6730;46.248;6.930;2023-09-08T05:10:22;22.10;99.90
13322;DHT22;6730;46.248;6.930;2023-09-08T05:12:48;21.90;99.90
13322;DHT22;6730;46.248;6.930;2023-09-08T05:15:15;22.00;99.90
13322;DHT22;6730;46.248;6.930;2023-09-08T05:17:42;22.00;99.90
13322;DHT22;6730;46.248;6.930;2023-09-08T05:20:09;21.80;99.90
13322;DHT22;6730;46.248;6.930;2023-09-08T05:22:35;21.60;99.90
13322;DHT22;6730;46.248;6.930;2023-09-08T05:25:02;21.50;99.90
13322;DHT22;6730;46.248;6.930;2023-09-08T05:27:27;21.30;99.90
13322;DHT22;6730;46.248;6.930;2023-09-08T05:29:53;21.40;99.90
13322;DHT22;6730;46.248;6.930;2023-09-08T05:32:19;21.50;99.90
13322;DHT22;6730;46.248;6.930;2023-09-08T05:34:50;21.30;99.90
13322;DHT22;6730;46.248;6.930;2023-09-08T05:37:16;21.60;99.90
13322;DHT22;6730;46.248;6.930;2023-09-08T05:39:42;21.70;99.90
13322;DHT22;6730;46.248;6.930;2023-09-08T05:42:07;21.80;99.90
13322;DHT22;6730;46.248;6.930;2023-09-08T05:44:33;21.80;99.90
13322;DHT22;6730;46.248;6.930;2023-09-08T05:46:59;21.90;99.90
13322;DHT22;6730;46.248;6.930;2023-09-08T05:49:24;22.00;99.90
13322;DHT22;6730;46.248;6.930;2023-09-08T05:51:50;22.10;99.90
13322;DHT22;6730;46.248;6.930;2023-09-08T05:54:16;22.10;99.90
13322;DHT22;6730;46.248;6.930;2023-09-08T05:56:41;21.70;99.90
13322;DHT22;6730;46.248;6.930;2023-09-08T05:59:07;21.40;99.90
13322;DHT22;6730;46.248;6.930;2023-09-08T06:01:33;21.30;99.90
13322;DHT22;6730;46.248;6.930;2023-09-08T06:03:58;21.40;99.90
13322;DHT22;6730;46.248;6.930;2023-09-08T06:06:24;21.80;99.90
13322;DHT22;6730;46.248;6.930;2023-09-08T06:08:50;22.10;99.90
13322;DHT22;6730;46.248;6.930;2023-09-08T06:11:16;22.50;99.90
13322;DHT22;6730;46.248;6.930;2023-09-08T06:13:42;22.70;99.90
13322;DHT22;6730;46.248;6.930;2023-09-08T06:16:08;23.00;99.90
13322;DHT22;6730;46.248;6.930;2023-09-08T06:18:34;23.10;99.90
13322;DHT22;6730;46.248;6.930;2023-09-08T06:21:06;22.80;99.90
13322;DHT22;6730;46.248;6.930;2023-09-08T06:23:35;22.60;99.90
13322;DHT22;6730;46.248;6.930;2023-09-08T06:26:01;22.60;99.90
13322;DHT22;6730;46.248;6.930;2023-09-08T06:28:30;22.80;99.90
13322;DHT22;6730;46.248;6.930;2023-09-08T06:30:56;22.90;99.90
13322;DHT22;6730;46.248;6.930;2023-09-08T06:33:21;23.00;99.90
13322;DHT22;6730;46.248;6.930;2023-09-08T06:35:50;23.10;99.90
13322;DHT22;6730;46.248;6.930;2023-09-08T06:38:16;23.20;99.90
13322;DHT22;6730;46.248;6.930;2023-09-08T06:40:42;23.50;99.90
13322;DHT22;6730;46.248;6.930;2023-09-08T06:43:07;23.60;99.90
13322;DHT22;6730;46.248;6.930;2023-09-08T06:45:33;23.60;99.90
13322;DHT22;6730;46.248;6.930;2023-09-08T06:47:59;23.70;99.90
13322;DHT22;6730;46.248;6.930;2023-09-08T06:50:25;23.80;99.90
13322;DHT22;6730;46.248;6.930;2023-09-08T06:52:52;24.10;99.90
13322;DHT22;6730;46.248;6.930;2023-09-08T06:55:18;24.40;99.90
13322;DHT22;6730;46.248;6.930;2023-09-08T06:57:44;24.90;99.90
13322;DHT22;6730;46.248;6.930;2023-09-08T07:00:10;25.20;99.90
13322;DHT22;6730;46.248;6.930;2023-09-08T07:02:40;25.40;99.90
13322;DHT22;6730;46.248;6.930;2023-09-08T07:05:06;25.30;99.90
13322;DHT22;6730;46.248;6.930;2023-09-08T07:07:35;25.50;99.90
13322;DHT22;6730;46.248;6.930;2023-09-08T07:10:04;25.80;99.90
13322;DHT22;6730;46.248;6.930;2023-09-08T07:12:33;26.00;99.90
13322;DHT22;6730;46.248;6.930;2023-09-08T07:14:58;25.70;99.90
13322;DHT22;6730;46.248;6.930;2023-09-08T07:17:25;25.50;99.90
13322;DHT22;6730;46.248;6.930;2023-09-08T07:19:51;25.80;99.90
13322;DHT22;6730;46.248;6.930;2023-09-08T07:22:17;25.50;99.90
13322;DHT22;6730;46.248;6.930;2023-09-08T07:24:42;25.60;99.90
13322;DHT22;6730;46.248;6.930;2023-09-08T07:27:09;25.50;99.90
13322;DHT22;6730;46.248;6.930;2023-09-08T07:29:38;25.50;99.90
13322;DHT22;6730;46.248;6.930;2023-09-08T07:32:04;25.70;99.90
13322;DHT22;6730;46.248;6.930;2023-09-08T07:34:30;25.70;99.90
13322;DHT22;6730;46.248;6.930;2023-09-08T07:36:56;26.10;99.90
13322;DHT22;6730;46.248;6.930;2023-09-08T07:39:21;26.00;99.90
13322;DHT22;6730;46.248;6.930;2023-09-08T07:41:47;26.30;99.90
13322;DHT22;6730;46.248;6.930;2023-09-08T07:44:13;26.30;99.90
13322;DHT22;6730;46.248;6.930;2023-09-08T07:46:38;26.00;99.90
13322;DHT22;6730;46.248;6.930;2023-09-08T07:49:04;26.50;99.90
13322;DHT22;6730;46.248;6.930;2023-09-08T07:51:30;26.70;99.90
13322;DHT22;6730;46.248;6.930;2023-09-08T07:53:56;26.80;99.90
13322;DHT22;6730;46.248;6.930;2023-09-08T07:56:22;26.60;99.90
13322;DHT22;6730;46.248;6.930;2023-09-08T07:58:48;26.70;99.90
13322;DHT22;6730;46.248;6.930;2023-09-08T08:01:14;27.00;99.90
13322;DHT22;6730;46.248;6.930;2023-09-08T08:03:40;27.40;99.90
13322;DHT22;6730;46.248;6.930;2023-09-08T08:06:06;26.70;99.90
13322;DHT22;6730;46.248;6.930;2023-09-08T08:08:32;26.40;99.90
13322;DHT22;6730;46.248;6.930;2023-09-08T08:10:58;26.40;99.90
13322;DHT22;6730;46.248;6.930;2023-09-08T08:13:24;26.60;99.90
13322;DHT22;6730;46.248;6.930;2023-09-08T08:15:50;26.50;99.90
13322;DHT22;6730;46.248;6.930;2023-09-08T08:18:16;26.80;99.90
13322;DHT22;6730;46.248;6.930;2023-09-08T08:20:41;27.00;99.90
13322;DHT22;6730;46.248;6.930;2023-09-08T08:23:08;27.70;99.90
13322;DHT22;6730;46.248;6.930;2023-09-08T08:25:34;28.20;99.90
13322;DHT22;6730;46.248;6.930;2023-09-08T08:27:59;28.40;99.90
13322;DHT22;6730;46.248;6.930;2023-09-08T08:30:26;28.50;99.90
13322;DHT22;6730;46.248;6.930;2023-09-08T08:32:52;28.40;99.90
13322;DHT22;6730;46.248;6.930;2023-09-08T08:35:19;28.70;99.90
13322;DHT22;6730;46.248;6.930;2023-09-08T08:37:45;27.50;99.90
13322;DHT22;6730;46.248;6.930;2023-09-08T08:40:14;26.70;99.90
13322;DHT22;6730;46.248;6.930;2023-09-08T08:42:40;26.60;99.90
13322;DHT22;6730;46.248;6.930;2023-09-08T08:45:07;26.70;99.90
13322;DHT22;6730;46.248;6.930;2023-09-08T08:47:33;27.40;99.90
13322;DHT22;6730;46.248;6.930;2023-09-08T08:49:59;27.60;99.90
13322;DHT22;6730;46.248;6.930;2023-09-08T08:52:27;28.40;99.90
13322;DHT22;6730;46.248;6.930;2023-09-08T08:54:53;28.80;99.90
13322;DHT22;6730;46.248;6.930;2023-09-08T08:57:20;29.00;99.50
13322;DHT22;6730;46.248;6.930;2023-09-08T08:59:50;29.00;99.80
13322;DHT22;6730;46.248;6.930;2023-09-08T09:02:19;29.20;98.70
13322;DHT22;6730;46.248;6.930;2023-09-08T09:04:45;29.20;98.60
13322;DHT22;6730;46.248;6.930;2023-09-08T09:07:12;29.00;99.00
13322;DHT22;6730;46.248;6.930;2023-09-08T09:09:38;29.30;99.30
13322;DHT22;6730;46.248;6.930;2023-09-08T09:12:06;29.70;98.70
13322;DHT22;6730;46.248;6.930;2023-09-08T09:14:32;29.60;99.80
13322;DHT22;6730;46.248;6.930;2023-09-08T09:16:59;29.50;98.50
13322;DHT22;6730;46.248;6.930;2023-09-08T09:19:25;29.70;98.90
13322;DHT22;6730;46.248;6.930;2023-09-08T09:21:53;29.70;97.70
13322;DHT22;6730;46.248;6.930;2023-09-08T09:24:39;29.70;97.80
13322;DHT22;6730;46.248;6.930;2023-09-08T09:27:09;29.40;99.90
13322;DHT22;6730;46.248;6.930;2023-09-08T09:29:46;29.30;98.20
13322;DHT22;6730;46.248;6.930;2023-09-08T09:32:12;29.10;98.50
13322;DHT22;6730;46.248;6.930;2023-09-08T09:34:51;29.40;99.40
13322;DHT22;6730;46.248;6.930;2023-09-08T09:37:18;29.80;99.60
13322;DHT22;6730;46.248;6.930;2023-09-08T09:39:49;30.40;99.00
13322;DHT22;6730;46.248;6.930;2023-09-08T09:42:15;30.40;98.60
13322;DHT22;6730;46.248;6.930;2023-09-08T09:44:41;30.50;97.10
13322;DHT22;6730;46.248;6.930;2023-09-08T09:47:06;30.10;98.90
13322;DHT22;6730;46.248;6.930;2023-09-08T09:49:44;30.40;97.70
13322;DHT22;6730;46.248;6.930;2023-09-08T09:52:12;30.40;98.10
13322;DHT22;6730;46.248;6.930;2023-09-08T09:54:43;30.30;97.70
13322;DHT22;6730;46.248;6.930;2023-09-08T09:57:13;30.40;98.60
13322;DHT22;6730;46.248;6.930;2023-09-08T09:59:41;30.60;98.10
13322;DHT22;6730;46.248;6.930;2023-09-08T10:02:12;30.20;99.40
13322;DHT22;6730;46.248;6.930;2023-09-08T10:04:40;29.50;98.40
13322;DHT22;6730;46.248;6.930;2023-09-08T10:07:06;29.40;99.10
13322;DHT22;6730;46.248;6.930;2023-09-08T10:09:32;29.10;98.90
13322;DHT22;6730;46.248;6.930;2023-09-08T10:12:03;28.70;99.90
13322;DHT22;6730;46.248;6.930;2023-09-08T10:14:30;28.60;99.70
13322;DHT22;6730;46.248;6.930;2023-09-08T10:16:59;28.00;99.90
13322;DHT22;6730;46.248;6.930;2023-09-08T10:19:25;27.90;99.90
13322;DHT22;6730;46.248;6.930;2023-09-08T10:21:54;27.80;99.90
13322;DHT22;6730;46.248;6.930;2023-09-08T10:24:28;28.50;99.60
13322;DHT22;6730;46.248;6.930;2023-09-08T10:27:11;28.80;99.60
13322;DHT22;6730;46.248;6.930;2023-09-08T10:29:38;29.10;99.00
13322;DHT22;6730;46.248;6.930;2023-09-08T10:32:06;28.20;99.40
13322;DHT22;6730;46.248;6.930;2023-09-08T10:34:33;28.00;99.90
13322;DHT22;6730;46.248;6.930;2023-09-08T10:36:59;27.60;99.90
13322;DHT22;6730;46.248;6.930;2023-09-08T10:39:29;27.30;99.90
13322;DHT22;6730;46.248;6.930;2023-09-08T10:45:14;27.40;99.90
13322;DHT22;6730;46.248;6.930;2023-09-08T10:47:55;27.50;99.90
13322;DHT22;6730;46.248;6.930;2023-09-08T10:50:32;27.40;99.90
13322;DHT22;6730;46.248;6.930;2023-09-08T10:53:06;28.00;99.90
13322;DHT22;6730;46.248;6.930;2023-09-08T10:55:42;27.90;99.90
13322;DHT22;6730;46.248;6.930;2023-09-08T10:58:10;27.50;99.90
13322;DHT22;6730;46.248;6.930;2023-09-08T11:00:58;27.70;99.90
13322;DHT22;6730;46.248;6.930;2023-09-08T11:06:07;27.20;99.90
13322;DHT22;6730;46.248;6.930;2023-09-08T11:08:36;27.10;99.90
13322;DHT22;6730;46.248;6.930;2023-09-08T11:11:02;27.10;99.90
13322;DHT22;6730;46.248;6.930;2023-09-08T11:13:28;27.50;99.90
13322;DHT22;6730;46.248;6.930;2023-09-08T11:15:54;28.30;99.90
13322;DHT22;6730;46.248;6.930;2023-09-08T11:18:29;28.10;99.90
13322;DHT22;6730;46.248;6.930;2023-09-08T11:20:56;27.60;99.90
13322;DHT22;6730;46.248;6.930;2023-09-08T11:23:22;27.50;99.90
13322;DHT22;6730;46.248;6.930;2023-09-08T11:25:52;27.70;99.90
13322;DHT22;6730;46.248;6.930;2023-09-08T11:28:22;28.10;99.90
13322;DHT22;6730;46.248;6.930;2023-09-08T11:30:49;27.70;99.90
13322;DHT22;6730;46.248;6.930;2023-09-08T11:33:19;27.30;99.90
13322;DHT22;6730;46.248;6.930;2023-09-08T11:35:50;27.40;99.90
13322;DHT22;6730;46.248;6.930;2023-09-08T11:38:16;27.30;99.90
13322;DHT22;6730;46.248;6.930;2023-09-08T11:40:42;27.30;99.90
13322;DHT22;6730;46.248;6.930;2023-09-08T11:43:08;27.40;99.90
13322;DHT22;6730;46.248;6.930;2023-09-08T11:45:35;27.20;99.90
13322;DHT22;6730;46.248;6.930;2023-09-08T11:48:01;26.80;99.90
13322;DHT22;6730;46.248;6.930;2023-09-08T11:50:27;26.60;99.90
13322;DHT22;6730;46.248;6.930;2023-09-08T11:52:53;26.80;99.90
13322;DHT22;6730;46.248;6.930;2023-09-08T11:55:21;26.50;99.90
13322;DHT22;6730;46.248;6.930;2023-09-08T11:57:52;26.70;99.90
13322;DHT22;6730;46.248;6.930;2023-09-08T12:00:21;26.80;99.90
13322;DHT22;6730;46.248;6.930;2023-09-08T12:02:49;27.00;99.90
13322;DHT22;6730;46.248;6.930;2023-09-08T12:05:27;27.20;99.90
13322;DHT22;6730;46.248;6.930;2023-09-08T12:07:55;27.10;99.90
13322;DHT22;6730;46.248;6.930;2023-09-08T12:10:22;27.20;99.90
13322;DHT22;6730;46.248;6.930;2023-09-08T12:12:49;27.20;99.90
13322;DHT22;6730;46.248;6.930;2023-09-08T12:15:38;26.70;99.90
13322;DHT22;6730;46.248;6.930;2023-09-08T12:18:12;26.40;99.90
13322;DHT22;6730;46.248;6.930;2023-09-08T12:20:39;26.50;99.90
13322;DHT22;6730;46.248;6.930;2023-09-08T12:23:15;26.60;99.90
13322;DHT22;6730;46.248;6.930;2023-09-08T12:25:48;26.30;99.90
13322;DHT22;6730;46.248;6.930;2023-09-08T12:28:16;26.40;99.90
13322;DHT22;6730;46.248;6.930;2023-09-08T12:30:43;26.60;99.90
13322;DHT22;6730;46.248;6.930;2023-09-08T12:33:08;26.70;99.90
13322;DHT22;6730;46.248;6.930;2023-09-08T12:35:37;26.40;99.90
13322;DHT22;6730;46.248;6.930;2023-09-08T12:38:04;26.10;99.90
13322;DHT22;6730;46.248;6.930;2023-09-08T12:40:35;26.20;99.90
13322;DHT22;6730;46.248;6.930;2023-09-08T12:43:01;26.10;99.90
13322;DHT22;6730;46.248;6.930;2023-09-08T12:45:27;26.10;99.90
13322;DHT22;6730;46.248;6.930;2023-09-08T12:47:54;26.30;99.90
13322;DHT22;6730;46.248;6.930;2023-09-08T12:50:24;26.40;99.90
13322;DHT22;6730;46.248;6.930;2023-09-08T12:52:50;26.20;99.90
13322;DHT22;6730;46.248;6.930;2023-09-08T12:55:15;26.40;99.90
13322;DHT22;6730;46.248;6.930;2023-09-08T12:57:41;26.80;99.90
13322;DHT22;6730;46.248;6.930;2023-09-08T13:00:07;26.70;99.90
13322;DHT22;6730;46.248;6.930;2023-09-08T13:02:33;26.90;99.90
13322;DHT22;6730;46.248;6.930;2023-09-08T13:05:00;27.10;99.90
13322;DHT22;6730;46.248;6.930;2023-09-08T13:07:26;27.10;99.90
13322;DHT22;6730;46.248;6.930;2023-09-08T13:09:52;27.30;99.90
13322;DHT22;6730;46.248;6.930;2023-09-08T13:12:18;27.60;99.90
13322;DHT22;6730;46.248;6.930;2023-09-08T13:14:43;27.40;99.90
13322;DHT22;6730;46.248;6.930;2023-09-08T13:17:13;27.00;99.90
13322;DHT22;6730;46.248;6.930;2023-09-08T13:19:43;27.10;99.90
13322;DHT22;6730;46.248;6.930;2023-09-08T13:22:09;27.40;99.90
13322;DHT22;6730;46.248;6.930;2023-09-08T13:24:35;27.60;99.90
13322;DHT22;6730;46.248;6.930;2023-09-08T13:27:01;26.90;99.90
13322;DHT22;6730;46.248;6.930;2023-09-08T13:29:27;26.90;99.90
13322;DHT22;6730;46.248;6.930;2023-09-08T13:31:53;27.10;99.90
13322;DHT22;6730;46.248;6.930;2023-09-08T13:34:23;27.20;99.90
13322;DHT22;6730;46.248;6.930;2023-09-08T13:36:49;27.10;99.90
13322;DHT22;6730;46.248;6.930;2023-09-08T13:39:14;26.90;99.90
13322;DHT22;6730;46.248;6.930;2023-09-08T13:41:47;26.90;99.90
13322;DHT22;6730;46.248;6.930;2023-09-08T13:44:13;27.00;99.90
13322;DHT22;6730;46.248;6.930;2023-09-08T13:46:39;26.60;99.90
13322;DHT22;6730;46.248;6.930;2023-09-08T13:49:05;26.40;99.90
13322;DHT22;6730;46.248;6.930;2023-09-08T13:51:31;26.50;99.90
13322;DHT22;6730;46.248;6.930;2023-09-08T13:53:57;26.70;99.90
13322;DHT22;6730;46.248;6.930;2023-09-08T13:56:23;26.50;99.90
13322;DHT22;6730;46.248;6.930;2023-09-08T13:58:49;26.40;99.90
13322;DHT22;6730;46.248;6.930;2023-09-08T14:01:15;26.20;99.90
13322;DHT22;6730;46.248;6.930;2023-09-08T14:03:40;26.00;99.90
13322;DHT22;6730;46.248;6.930;2023-09-08T14:06:06;26.10;99.90
13322;DHT22;6730;46.248;6.930;2023-09-08T14:08:32;26.10;99.90
13322;DHT22;6730;46.248;6.930;2023-09-08T14:10:57;26.20;99.90
13322;DHT22;6730;46.248;6.930;2023-09-08T14:13:23;26.00;99.90
13322;DHT22;6730;46.248;6.930;2023-09-08T14:15:49;25.90;99.90
13322;DHT22;6730;46.248;6.930;2023-09-08T14:18:14;25.80;99.90
13322;DHT22;6730;46.248;6.930;2023-09-08T14:20:41;25.90;99.90
13322;DHT22;6730;46.248;6.930;2023-09-08T14:23:07;26.00;99.90
13322;DHT22;6730;46.248;6.930;2023-09-08T14:25:34;26.00;99.90
13322;DHT22;6730;46.248;6.930;2023-09-08T14:28:00;26.00;99.90
13322;DHT22;6730;46.248;6.930;2023-09-08T14:30:28;26.00;99.90
13322;DHT22;6730;46.248;6.930;2023-09-08T14:32:54;26.10;99.90
13322;DHT22;6730;46.248;6.930;2023-09-08T14:35:20;26.20;99.90
13322;DHT22;6730;46.248;6.930;2023-09-08T14:37:49;26.10;99.90
13322;DHT22;6730;46.248;6.930;2023-09-08T14:40:15;26.30;99.90
13322;DHT22;6730;46.248;6.930;2023-09-08T14:42:41;26.40;99.90
13322;DHT22;6730;46.248;6.930;2023-09-08T14:45:07;26.40;99.90
13322;DHT22;6730;46.248;6.930;2023-09-08T14:47:34;26.80;99.90
13322;DHT22;6730;46.248;6.930;2023-09-08T14:50:00;27.00;99.90
13322;DHT22;6730;46.248;6.930;2023-09-08T14:52:26;27.30;99.90
13322;DHT22;6730;46.248;6.930;2023-09-08T14:54:51;27.70;99.90
13322;DHT22;6730;46.248;6.930;2023-09-08T14:57:17;27.80;99.90
13322;DHT22;6730;46.248;6.930;2023-09-08T14:59:44;28.10;99.90
13322;DHT22;6730;46.248;6.930;2023-09-08T15:02:09;28.20;99.90
13322;DHT22;6730;46.248;6.930;2023-09-08T15:04:35;28.30;99.90
13322;DHT22;6730;46.248;6.930;2023-09-08T15:07:01;27.80;99.90
13322;DHT22;6730;46.248;6.930;2023-09-08T15:09:27;27.60;99.90
13322;DHT22;6730;46.248;6.930;2023-09-08T15:11:53;27.80;99.90
13322;DHT22;6730;46.248;6.930;2023-09-08T15:14:18;28.00;99.90
13322;DHT22;6730;46.248;6.930;2023-09-08T15:16:44;27.90;99.90
13322;DHT22;6730;46.248;6.930;2023-09-08T15:19:10;28.10;99.90
13322;DHT22;6730;46.248;6.930;2023-09-08T15:21:35;28.40;99.90
13322;DHT22;6730;46.248;6.930;2023-09-08T15:24:01;28.30;99.90
13322;DHT22;6730;46.248;6.930;2023-09-08T15:26:27;28.40;99.90
13322;DHT22;6730;46.248;6.930;2023-09-08T15:28:53;28.30;99.90
13322;DHT22;6730;46.248;6.930;2023-09-08T15:31:19;28.10;99.90
13322;DHT22;6730;46.248;6.930;2023-09-08T15:33:45;28.10;99.90
13322;DHT22;6730;46.248;6.930;2023-09-08T15:36:11;28.10;99.90
13322;DHT22;6730;46.248;6.930;2023-09-08T15:38:37;28.10;99.90
13322;DHT22;6730;46.248;6.930;2023-09-08T15:43:40;28.10;99.90
13322;DHT22;6730;46.248;6.930;2023-09-08T15:46:07;27.90;99.90
13322;DHT22;6730;46.248;6.930;2023-09-08T15:48:38;27.90;99.90
13322;DHT22;6730;46.248;6.930;2023-09-08T15:51:04;27.90;99.90
13322;DHT22;6730;46.248;6.930;2023-09-08T15:53:30;27.70;99.90